Time;durP1;ratioP1;P1;durP2;ratioP2;P2;SDS_P1;SDS_P2;PMS_P1;PMS_P2;Temp;Humidity;BMP_temperature;BMP_pressure;BME280_temperature;BME280_humidity;BME280_pressure;Samples;Min_cycle;Max_cycle;Signal;HPM_P1;HPM_P2
2022/11/09 00:00:03;;;;;;;;;;;15.50;99.90;;;;;;5097544;28;19908;-68
2022/11/09 00:02:28;;;;;;;;;;;15.40;99.90;;;;;;5097545;28;19912;-67
2022/11/09 00:04:54;;;;;;;;;;;15.40;99.90;;;;;;5097473;28;19912;-67
2022/11/09 00:07:19;;;;;;;;;;;15.40;99.90;;;;;;5097414;28;19954;-67
2022/11/09 00:09:45;;;;;;;;;;;15.40;99.90;;;;;;5097409;28;19914;-68
2022/11/09 00:12:10;;;;;;;;;;;15.30;99.90;;;;;;5097344;28;19951;-67
2022/11/09 00:14:37;;;;;;;;;;;15.40;99.90;;;;;;5097377;28;19908;-67
2022/11/09 00:17:03;;;;;;;;;;;15.30;99.90;;;;;;5097233;28;19908;-67
2022/11/09 00:19:28;;;;;;;;;;;15.30;99.90;;;;;;5097213;28;19912;-68
2022/11/09 00:21:54;;;;;;;;;;;15.30;99.90;;;;;;5097160;28;19919;-68
2022/11/09 00:24:19;;;;;;;;;;;15.30;99.90;;;;;;5097137;28;19912;-68
2022/11/09 00:26:45;;;;;;;;;;;15.30;99.90;;;;;;5097000;28;20353;-68
2022/11/09 00:29:10;;;;;;;;;;;15.30;99.90;;;;;;5097014;28;19961;-68
2022/11/09 00:31:36;;;;;;;;;;;15.30;99.90;;;;;;5096757;28;19920;-67
2022/11/09 00:34:01;;;;;;;;;;;15.30;99.90;;;;;;5097213;28;19958;-67
2022/11/09 00:36:27;;;;;;;;;;;15.20;99.90;;;;;;5078844;28;19908;-68
2022/11/09 00:38:54;;;;;;;;;;;15.20;99.90;;;;;;5096829;28;19915;-68
2022/11/09 00:41:20;;;;;;;;;;;15.20;99.90;;;;;;5096748;28;20403;-67
2022/11/09 00:43:45;;;;;;;;;;;15.20;99.90;;;;;;5096769;28;19908;-68
2022/11/09 00:46:10;;;;;;;;;;;15.20;99.90;;;;;;5096955;28;19908;-68
2022/11/09 00:48:36;;;;;;;;;;;15.20;99.90;;;;;;5096691;28;19931;-68
2022/11/09 00:51:02;;;;;;;;;;;15.30;99.90;;;;;;5096639;28;19911;-68
2022/11/09 00:53:28;;;;;;;;;;;15.30;99.90;;;;;;5096612;28;19909;-68
2022/11/09 00:58:32;;;;;;;;;;;15.40;99.90;;;;;;5008073;28;20286;-67
2022/11/09 01:00:59;;;;;;;;;;;15.40;99.90;;;;;;5007925;28;20291;-68
2022/11/09 01:03:25;;;;;;;;;;;15.50;99.90;;;;;;5007942;28;19959;-67
2022/11/09 01:05:51;;;;;;;;;;;15.40;99.90;;;;;;5007871;28;20433;-67
2022/11/09 01:08:16;;;;;;;;;;;15.40;99.90;;;;;;5007795;28;19910;-67
2022/11/09 01:10:43;;;;;;;;;;;15.50;99.90;;;;;;5039649;28;20094;-68
2022/11/09 01:13:09;;;;;;;;;;;15.40;99.90;;;;;;5008034;28;19988;-67
2022/11/09 01:15:39;;;;;;;;;;;15.40;99.90;;;;;;5007743;28;20018;-67
2022/11/09 01:18:04;;;;;;;;;;;15.40;99.90;;;;;;5007569;28;20271;-67
2022/11/09 01:20:30;;;;;;;;;;;15.40;99.90;;;;;;5007677;28;19972;-67
2022/11/09 01:22:55;;;;;;;;;;;15.30;99.90;;;;;;5007570;28;19917;-67
2022/11/09 01:25:20;;;;;;;;;;;15.30;99.90;;;;;;5007559;28;19910;-71
2022/11/09 01:27:46;;;;;;;;;;;15.30;99.90;;;;;;5022727;28;19913;-71
2022/11/09 01:30:12;;;;;;;;;;;15.30;99.90;;;;;;5007481;28;19936;-71
2022/11/09 01:32:37;;;;;;;;;;;15.30;99.90;;;;;;5039276;28;19917;-70
2022/11/09 01:35:03;;;;;;;;;;;15.30;99.90;;;;;;5007404;28;19913;-71
2022/11/09 01:37:28;;;;;;;;;;;15.30;99.90;;;;;;5007312;28;19921;-71
2022/11/09 01:39:53;;;;;;;;;;;15.30;99.90;;;;;;5006051;28;19959;-71
2022/11/09 01:42:21;;;;;;;;;;;15.30;99.90;;;;;;5007298;28;19914;-71
2022/11/09 01:44:47;;;;;;;;;;;15.20;99.90;;;;;;5007187;28;19917;-71
2022/11/09 01:47:16;;;;;;;;;;;15.20;99.90;;;;;;5007183;28;19913;-71
2022/11/09 01:49:45;;;;;;;;;;;15.20;99.90;;;;;;5007140;28;19936;-71
2022/11/09 01:52:20;;;;;;;;;;;15.30;99.90;;;;;;5007098;28;20431;-70
2022/11/09 01:54:48;;;;;;;;;;;15.30;99.90;;;;;;5007086;28;19910;-71
2022/11/09 01:57:17;;;;;;;;;;;15.30;99.90;;;;;;5021900;28;20371;-71
2022/11/09 01:59:45;;;;;;;;;;;15.30;99.90;;;;;;5038751;28;19920;-70
2022/11/09 02:02:11;;;;;;;;;;;15.20;99.90;;;;;;5007025;28;19910;-70
2022/11/09 02:04:40;;;;;;;;;;;15.20;99.90;;;;;;5005726;28;19910;-70
2022/11/09 02:07:06;;;;;;;;;;;15.20;99.90;;;;;;5006895;28;20283;-71
2022/11/09 02:09:37;;;;;;;;;;;15.20;99.90;;;;;;4995754;28;19910;-71
2022/11/09 02:12:03;;;;;;;;;;;15.20;99.90;;;;;;4993803;28;19914;-71
2022/11/09 02:14:31;;;;;;;;;;;15.20;99.90;;;;;;5008930;28;19913;-71
2022/11/09 02:16:57;;;;;;;;;;;15.20;99.90;;;;;;4992443;28;19914;-72
2022/11/09 02:19:22;;;;;;;;;;;15.20;99.90;;;;;;4993758;28;20001;-71
2022/11/09 02:21:47;;;;;;;;;;;15.10;99.90;;;;;;5025404;28;20291;-71
2022/11/09 02:24:13;;;;;;;;;;;15.10;99.90;;;;;;4993638;28;19968;-71
2022/11/09 02:26:42;;;;;;;;;;;15.00;99.90;;;;;;4993618;28;19909;-71
2022/11/09 02:29:09;;;;;;;;;;;14.90;99.90;;;;;;5025206;28;19917;-70
2022/11/09 02:31:36;;;;;;;;;;;15.10;99.90;;;;;;4993541;28;19910;-71
2022/11/09 02:34:05;;;;;;;;;;;15.00;99.90;;;;;;4993486;28;19956;-71
2022/11/09 02:36:31;;;;;;;;;;;15.00;99.90;;;;;;4992171;28;20291;-71
2022/11/09 02:38:56;;;;;;;;;;;14.90;99.90;;;;;;5025117;28;19910;-71
2022/11/09 02:41:22;;;;;;;;;;;14.90;99.90;;;;;;5025062;28;20203;-71
2022/11/09 02:43:49;;;;;;;;;;;14.90;99.90;;;;;;4993354;28;19910;-71
2022/11/09 02:46:35;;;;;;;;;;;14.90;99.90;;;;;;4993241;28;19910;-70
2022/11/09 02:49:01;;;;;;;;;;;14.90;99.90;;;;;;4993391;28;20322;-70
2022/11/09 02:51:27;;;;;;;;;;;15.00;99.90;;;;;;4991965;28;19910;-71
2022/11/09 02:53:52;;;;;;;;;;;15.00;99.90;;;;;;4991962;28;19916;-71
2022/11/09 02:56:18;;;;;;;;;;;14.90;99.90;;;;;;4994792;28;19910;-70
2022/11/09 02:58:43;;;;;;;;;;;14.80;99.90;;;;;;4995174;28;20363;-71
2022/11/09 03:01:09;;;;;;;;;;;14.80;99.90;;;;;;5012624;28;20000;-71
2022/11/09 03:03:34;;;;;;;;;;;14.90;99.90;;;;;;5012612;28;19909;-71
2022/11/09 03:06:00;;;;;;;;;;;14.90;99.90;;;;;;5012655;28;19909;-70
2022/11/09 03:08:25;;;;;;;;;;;14.90;99.90;;;;;;5012531;28;20367;-70
2022/11/09 03:10:50;;;;;;;;;;;14.90;99.90;;;;;;5012464;28;19914;-71
2022/11/09 03:13:16;;;;;;;;;;;14.90;99.90;;;;;;5012448;28;19910;-70
2022/11/09 03:15:41;;;;;;;;;;;14.90;99.90;;;;;;5012477;28;19935;-71
2022/11/09 03:18:07;;;;;;;;;;;14.90;99.90;;;;;;4994779;28;19921;-71
2022/11/09 03:20:32;;;;;;;;;;;14.90;99.90;;;;;;5011285;28;19913;-71
2022/11/09 03:22:58;;;;;;;;;;;14.80;99.90;;;;;;5012320;28;19945;-70
2022/11/09 03:25:24;;;;;;;;;;;14.80;99.90;;;;;;4978481;28;20430;-71
2022/11/09 03:27:49;;;;;;;;;;;14.70;99.90;;;;;;5012268;28;19909;-72
2022/11/09 03:30:17;;;;;;;;;;;14.70;99.90;;;;;;5012248;28;20009;-71
2022/11/09 03:32:43;;;;;;;;;;;14.70;99.90;;;;;;5012164;28;19920;-71
2022/11/09 03:35:09;;;;;;;;;;;14.60;99.90;;;;;;5012148;28;20260;-71
2022/11/09 03:37:34;;;;;;;;;;;14.70;99.90;;;;;;5012069;28;19921;-70
2022/11/09 03:40:00;;;;;;;;;;;14.70;99.90;;;;;;5012096;28;19910;-70
2022/11/09 03:42:25;;;;;;;;;;;14.60;99.90;;;;;;5011988;28;20379;-70
2022/11/09 03:44:50;;;;;;;;;;;14.60;99.90;;;;;;5011953;28;20375;-70
2022/11/09 03:47:16;;;;;;;;;;;14.60;99.90;;;;;;5011900;28;20363;-70
2022/11/09 03:49:41;;;;;;;;;;;14.60;99.90;;;;;;5011892;28;19916;-70
2022/11/09 03:52:07;;;;;;;;;;;14.60;99.90;;;;;;5011887;28;19910;-70
2022/11/09 03:54:32;;;;;;;;;;;14.60;99.90;;;;;;5011789;28;19936;-70
2022/11/09 03:56:58;;;;;;;;;;;14.60;99.90;;;;;;5011561;28;19921;-71
2022/11/09 03:59:23;;;;;;;;;;;14.60;99.90;;;;;;5011751;28;20298;-71
2022/11/09 04:01:49;;;;;;;;;;;14.60;99.90;;;;;;5011700;28;19909;-70
2022/11/09 04:04:14;;;;;;;;;;;14.70;99.90;;;;;;4994224;28;19910;-71
2022/11/09 04:06:39;;;;;;;;;;;14.60;99.90;;;;;;5011665;28;20321;-70
2022/11/09 04:09:05;;;;;;;;;;;14.60;99.90;;;;;;4994096;28;20008;-70
2022/11/09 04:11:30;;;;;;;;;;;14.60;99.90;;;;;;5011663;28;19917;-70
2022/11/09 04:13:56;;;;;;;;;;;14.60;99.90;;;;;;4994048;28;19917;-71
2022/11/09 04:16:21;;;;;;;;;;;14.50;99.90;;;;;;4993904;28;19913;-71
2022/11/09 04:18:47;;;;;;;;;;;14.60;99.90;;;;;;4993885;28;19960;-70
2022/11/09 04:21:12;;;;;;;;;;;14.60;99.90;;;;;;4994036;28;19913;-71
2022/11/09 04:23:38;;;;;;;;;;;14.60;99.90;;;;;;4994019;28;20405;-70
2022/11/09 04:26:03;;;;;;;;;;;14.60;99.90;;;;;;5011379;28;19944;-70
2022/11/09 04:28:29;;;;;;;;;;;14.60;99.90;;;;;;5011340;28;19910;-70
2022/11/09 04:30:58;;;;;;;;;;;14.50;99.90;;;;;;5011125;28;19918;-65
2022/11/09 04:33:23;;;;;;;;;;;14.50;99.90;;;;;;5011264;28;20371;-65
2022/11/09 04:35:49;;;;;;;;;;;14.60;99.90;;;;;;4993663;28;19924;-65
2022/11/09 04:38:14;;;;;;;;;;;14.60;99.90;;;;;;5011107;28;20052;-65
2022/11/09 04:40:40;;;;;;;;;;;14.60;99.90;;;;;;5011191;28;19909;-66
2022/11/09 04:43:06;;;;;;;;;;;14.60;99.90;;;;;;5011130;28;19932;-65
2022/11/09 04:45:33;;;;;;;;;;;14.60;99.90;;;;;;5011167;28;19935;-65
2022/11/09 04:47:59;;;;;;;;;;;14.60;99.90;;;;;;5011091;28;20008;-65
2022/11/09 04:50:24;;;;;;;;;;;14.60;99.90;;;;;;4993634;28;19952;-65
2022/11/09 04:52:50;;;;;;;;;;;14.60;99.90;;;;;;5011006;28;19914;-65
2022/11/09 04:55:15;;;;;;;;;;;14.60;99.90;;;;;;5011012;28;19910;-65
2022/11/09 04:57:41;;;;;;;;;;;14.60;99.90;;;;;;5010724;28;19964;-65
2022/11/09 05:00:07;;;;;;;;;;;14.60;99.90;;;;;;5010952;28;19910;-65
2022/11/09 05:02:32;;;;;;;;;;;14.60;99.90;;;;;;5010900;28;19958;-65
2022/11/09 05:04:58;;;;;;;;;;;14.60;99.90;;;;;;4993329;28;19916;-65
2022/11/09 05:07:23;;;;;;;;;;;14.60;99.90;;;;;;5010796;28;19945;-64
2022/11/09 05:09:49;;;;;;;;;;;14.60;99.90;;;;;;5010801;28;19917;-65
2022/11/09 05:12:14;;;;;;;;;;;14.60;99.90;;;;;;5010732;28;19939;-65
2022/11/09 05:14:39;;;;;;;;;;;14.50;99.90;;;;;;5010972;28;20399;-66
2022/11/09 05:17:07;;;;;;;;;;;14.50;99.90;;;;;;5010613;28;20290;-65
2022/11/09 05:19:33;;;;;;;;;;;14.50;99.90;;;;;;5010692;28;20374;-65
2022/11/09 05:23:57;;;;;;;;;;;14.50;99.90;;;;;;4993278;28;19909;-65
2022/11/09 05:24:44;;;;;;;;;;;14.50;99.90;;;;;;5010432;28;19917;-65
2022/11/09 05:27:09;;;;;;;;;;;14.40;99.90;;;;;;5010587;28;19917;-65
2022/11/09 05:29:35;;;;;;;;;;;14.30;99.90;;;;;;4993126;28;19910;-65
2022/11/09 05:32:00;;;;;;;;;;;14.40;99.90;;;;;;5010549;28;19910;-65
2022/11/09 05:34:26;;;;;;;;;;;14.40;99.90;;;;;;5010492;28;19909;-65
2022/11/09 05:36:51;;;;;;;;;;;14.40;99.90;;;;;;5010403;28;20370;-65
2022/11/09 05:39:17;;;;;;;;;;;14.30;99.90;;;;;;4992836;28;20006;-65
2022/11/09 05:41:42;;;;;;;;;;;14.40;99.90;;;;;;5010445;28;19956;-65
2022/11/09 05:44:08;;;;;;;;;;;14.40;99.90;;;;;;4994465;28;19916;-65
2022/11/09 05:46:33;;;;;;;;;;;14.50;99.90;;;;;;5013876;28;19913;-65
2022/11/09 05:48:59;;;;;;;;;;;14.50;99.90;;;;;;5014407;28;19947;-65
2022/11/09 05:51:24;;;;;;;;;;;14.50;99.90;;;;;;5013716;28;19932;-65
2022/11/09 05:53:50;;;;;;;;;;;14.50;99.90;;;;;;5013694;28;19945;-64
2022/11/09 05:56:15;;;;;;;;;;;14.50;99.90;;;;;;5013407;28;20375;-65
2022/11/09 05:58:40;;;;;;;;;;;14.40;99.90;;;;;;5013613;28;19975;-65
2022/11/09 06:01:07;;;;;;;;;;;14.40;99.90;;;;;;5013535;28;19924;-65
2022/11/09 06:03:33;;;;;;;;;;;14.40;99.90;;;;;;5013817;28;19974;-65
2022/11/09 06:06:00;;;;;;;;;;;14.40;99.90;;;;;;5013521;28;19909;-65
2022/11/09 06:08:25;;;;;;;;;;;14.30;99.90;;;;;;5013445;28;19941;-65
2022/11/09 06:10:55;;;;;;;;;;;14.30;99.90;;;;;;5013408;28;19961;-65
2022/11/09 06:13:21;;;;;;;;;;;14.30;99.90;;;;;;4995838;28;19918;-65
2022/11/09 06:15:51;;;;;;;;;;;14.30;99.90;;;;;;5013299;28;19918;-65
2022/11/09 06:18:16;;;;;;;;;;;14.20;99.90;;;;;;4979480;28;19928;-65
2022/11/09 06:20:42;;;;;;;;;;;14.20;99.90;;;;;;5013237;28;19914;-65
2022/11/09 06:23:07;;;;;;;;;;;14.20;99.90;;;;;;4995687;28;19930;-65
2022/11/09 06:25:33;;;;;;;;;;;14.20;99.90;;;;;;5013249;28;20018;-65
2022/11/09 06:27:58;;;;;;;;;;;14.20;99.90;;;;;;5013140;28;20039;-65
2022/11/09 06:30:24;;;;;;;;;;;14.20;99.90;;;;;;5013108;28;20317;-65
2022/11/09 06:32:49;;;;;;;;;;;14.10;99.90;;;;;;5013352;28;20333;-65
2022/11/09 06:35:15;;;;;;;;;;;14.10;99.90;;;;;;5013071;28;20487;-65
2022/11/09 06:37:40;;;;;;;;;;;14.10;99.90;;;;;;5012971;28;19971;-65
2022/11/09 06:40:06;;;;;;;;;;;14.00;99.90;;;;;;5012973;28;19909;-66
2022/11/09 06:42:31;;;;;;;;;;;14.00;99.90;;;;;;4995393;28;19916;-65
2022/11/09 06:44:57;;;;;;;;;;;13.90;99.90;;;;;;5012875;28;19923;-65
2022/11/09 06:47:22;;;;;;;;;;;13.80;99.90;;;;;;4995197;28;19929;-65
2022/11/09 06:49:48;;;;;;;;;;;13.80;99.90;;;;;;5012713;28;19909;-65
2022/11/09 06:52:13;;;;;;;;;;;13.70;99.90;;;;;;5012772;28;19910;-65
2022/11/09 06:54:39;;;;;;;;;;;13.60;99.90;;;;;;5012623;28;19914;-65
2022/11/09 06:57:04;;;;;;;;;;;13.50;99.90;;;;;;5009785;28;19929;-69
2022/11/09 06:59:30;;;;;;;;;;;13.50;99.90;;;;;;4986870;28;20302;-67
2022/11/09 07:01:55;;;;;;;;;;;13.50;99.90;;;;;;4984837;28;19970;-65
2022/11/09 07:04:21;;;;;;;;;;;13.50;99.90;;;;;;5006178;28;20367;-65
2022/11/09 07:06:46;;;;;;;;;;;13.50;99.90;;;;;;5011723;28;19937;-65
2022/11/09 07:09:11;;;;;;;;;;;13.50;99.90;;;;;;4998842;28;19916;-66
2022/11/09 07:11:37;;;;;;;;;;;13.40;99.90;;;;;;5022582;28;19957;-65
2022/11/09 07:14:03;;;;;;;;;;;13.40;99.90;;;;;;5009178;28;19918;-66
2022/11/09 07:16:29;;;;;;;;;;;13.40;99.90;;;;;;4994552;28;19996;-65
2022/11/09 07:18:54;;;;;;;;;;;13.40;99.90;;;;;;5013498;28;19916;-64
2022/11/09 07:21:20;;;;;;;;;;;13.40;99.90;;;;;;4995430;28;19914;-65
2022/11/09 07:23:46;;;;;;;;;;;13.40;99.90;;;;;;5012177;28;19916;-67
2022/11/09 07:26:12;;;;;;;;;;;13.40;99.90;;;;;;4989697;28;20342;-65
2022/11/09 07:28:38;;;;;;;;;;;13.40;99.90;;;;;;5006148;28;19963;-65
2022/11/09 07:31:03;;;;;;;;;;;13.40;99.90;;;;;;5010849;28;19924;-65
2022/11/09 07:33:31;;;;;;;;;;;13.30;99.90;;;;;;5012064;28;19943;-65
2022/11/09 07:35:57;;;;;;;;;;;13.40;99.90;;;;;;4982169;28;20008;-67
2022/11/09 07:38:23;;;;;;;;;;;13.40;99.90;;;;;;5009185;28;20420;-67
2022/11/09 07:40:48;;;;;;;;;;;13.40;99.90;;;;;;5002532;28;19925;-67
2022/11/09 07:43:14;;;;;;;;;;;13.40;99.90;;;;;;5007616;28;19914;-68
2022/11/09 07:45:40;;;;;;;;;;;13.40;99.90;;;;;;5000716;28;19917;-68
2022/11/09 07:48:08;;;;;;;;;;;13.40;99.90;;;;;;5002698;28;20323;-66
2022/11/09 07:50:34;;;;;;;;;;;13.40;99.90;;;;;;5002399;28;20036;-67
2022/11/09 07:53:00;;;;;;;;;;;13.40;99.90;;;;;;5007306;28;20329;-66
2022/11/09 07:55:26;;;;;;;;;;;13.40;99.90;;;;;;5002534;28;20016;-69
2022/11/09 07:58:00;;;;;;;;;;;13.50;99.90;;;;;;5000318;28;19921;-67
2022/11/09 08:00:26;;;;;;;;;;;13.50;99.90;;;;;;5005123;28;19928;-67
2022/11/09 08:02:52;;;;;;;;;;;13.50;99.90;;;;;;5009039;28;19913;-67
2022/11/09 08:05:17;;;;;;;;;;;13.50;99.90;;;;;;5010273;28;19932;-68
2022/11/09 08:07:43;;;;;;;;;;;13.50;99.90;;;;;;4983424;28;20287;-66
2022/11/09 08:10:08;;;;;;;;;;;13.60;99.90;;;;;;4998218;28;19961;-67
2022/11/09 08:12:34;;;;;;;;;;;13.60;99.90;;;;;;5008079;28;19920;-67
2022/11/09 08:14:59;;;;;;;;;;;13.60;99.90;;;;;;5008272;28;19914;-68
2022/11/09 08:17:25;;;;;;;;;;;13.70;99.90;;;;;;5003541;28;20016;-69
2022/11/09 08:19:50;;;;;;;;;;;13.70;99.90;;;;;;4988640;28;20355;-69
2022/11/09 08:22:16;;;;;;;;;;;13.80;99.90;;;;;;4996907;28;20004;-68
2022/11/09 08:24:41;;;;;;;;;;;13.70;99.90;;;;;;5008165;28;19914;-68
2022/11/09 08:27:06;;;;;;;;;;;13.70;99.90;;;;;;5017280;28;19921;-68
2022/11/09 08:29:32;;;;;;;;;;;13.90;99.90;;;;;;4992236;28;19914;-68
2022/11/09 08:31:57;;;;;;;;;;;14.60;99.90;;;;;;5006808;28;19914;-66
2022/11/09 08:34:23;;;;;;;;;;;15.20;99.90;;;;;;5003297;28;19953;-67
2022/11/09 08:36:49;;;;;;;;;;;16.00;99.90;;;;;;4990050;28;19918;-67
2022/11/09 08:39:14;;;;;;;;;;;15.90;99.90;;;;;;5009554;28;19913;-68
2022/11/09 08:41:40;;;;;;;;;;;15.70;99.90;;;;;;4991489;28;19914;-69
2022/11/09 08:44:05;;;;;;;;;;;15.60;99.90;;;;;;4990292;28;20291;-69
2022/11/09 08:46:31;;;;;;;;;;;15.60;99.90;;;;;;5006896;28;19948;-71
2022/11/09 08:48:56;;;;;;;;;;;15.70;99.90;;;;;;5010933;28;19925;-67
2022/11/09 08:51:22;;;;;;;;;;;15.60;99.90;;;;;;5009719;28;19913;-70
2022/11/09 08:53:47;;;;;;;;;;;15.80;99.90;;;;;;5007452;28;20394;-68
2022/11/09 08:56:17;;;;;;;;;;;15.80;99.90;;;;;;5002874;28;20047;-69
2022/11/09 08:58:43;;;;;;;;;;;15.90;99.90;;;;;;4984684;28;20051;-68
2022/11/09 09:01:08;;;;;;;;;;;15.90;99.90;;;;;;5014215;28;20285;-69
2022/11/09 09:03:34;;;;;;;;;;;16.10;99.90;;;;;;5001129;28;20008;-68
2022/11/09 09:06:03;;;;;;;;;;;16.00;99.90;;;;;;4992446;28;20416;-69
2022/11/09 09:08:29;;;;;;;;;;;16.10;99.90;;;;;;5003926;28;19913;-67
2022/11/09 09:10:54;;;;;;;;;;;16.30;99.90;;;;;;5009637;28;20009;-68
2022/11/09 09:13:21;;;;;;;;;;;16.20;99.90;;;;;;4991769;28;19932;-69
2022/11/09 09:15:47;;;;;;;;;;;16.00;99.90;;;;;;4997298;28;20375;-68
2022/11/09 09:18:12;;;;;;;;;;;16.00;99.90;;;;;;4998653;28;19965;-68
2022/11/09 09:20:38;;;;;;;;;;;16.40;99.90;;;;;;5012478;28;19918;-69
2022/11/09 09:23:03;;;;;;;;;;;16.30;99.90;;;;;;5013370;28;19918;-68
2022/11/09 09:25:29;;;;;;;;;;;16.50;99.90;;;;;;5013496;28;19914;-68
2022/11/09 09:27:54;;;;;;;;;;;16.70;99.90;;;;;;5012101;28;19985;-68
2022/11/09 09:30:20;;;;;;;;;;;16.60;99.90;;;;;;5093632;28;19912;-68
2022/11/09 09:32:45;;;;;;;;;;;16.40;99.90;;;;;;5019523;28;19924;-69
2022/11/09 09:35:11;;;;;;;;;;;16.50;99.90;;;;;;5010800;28;19967;-69
2022/11/09 09:37:36;;;;;;;;;;;17.00;99.90;;;;;;5002567;28;19940;-69
2022/11/09 09:40:02;;;;;;;;;;;17.40;99.90;;;;;;5007105;28;19913;-70
2022/11/09 09:42:31;;;;;;;;;;;17.80;99.90;;;;;;5011419;28;19918;-71
2022/11/09 09:45:14;;;;;;;;;;;17.70;99.90;;;;;;4995384;28;19913;-70
2022/11/09 09:50:23;;;;;;;;;;;17.90;99.90;;;;;;5089562;28;19921;-72
2022/11/09 09:52:52;;;;;;;;;;;18.40;99.90;;;;;;5085557;28;19913;-71
2022/11/09 09:55:24;;;;;;;;;;;18.40;99.90;;;;;;5072367;28;19920;-73
2022/11/09 09:57:53;;;;;;;;;;;18.50;99.90;;;;;;5079558;28;19999;-72
2022/11/09 10:00:21;;;;;;;;;;;18.00;99.90;;;;;;5068307;28;20303;-70
2022/11/09 10:02:48;;;;;;;;;;;17.60;99.90;;;;;;5072647;28;19912;-71
2022/11/09 10:05:14;;;;;;;;;;;17.30;99.90;;;;;;5088437;28;20392;-71
2022/11/09 10:07:45;;;;;;;;;;;17.30;99.90;;;;;;5068674;28;20290;-71
2022/11/09 10:10:16;;;;;;;;;;;17.40;99.90;;;;;;5069241;28;19920;-71
2022/11/09 10:13:01;;;;;;;;;;;17.30;99.90;;;;;;5082483;28;19916;-71
2022/11/09 10:15:32;;;;;;;;;;;17.00;99.90;;;;;;5057091;28;19967;-72
2022/11/09 10:18:04;;;;;;;;;;;16.70;99.90;;;;;;5067586;28;20406;-71
2022/11/09 10:20:50;;;;;;;;;;;16.40;99.90;;;;;;5070749;28;20077;-72
2022/11/09 10:23:18;;;;;;;;;;;16.40;99.90;;;;;;5078526;28;19965;-72
2022/11/09 10:25:45;;;;;;;;;;;16.70;99.90;;;;;;5103526;28;19909;-70
2022/11/09 10:28:12;;;;;;;;;;;17.20;99.90;;;;;;5071903;28;20470;-72
2022/11/09 10:30:38;;;;;;;;;;;16.90;99.90;;;;;;5061987;28;19981;-71
2022/11/09 10:33:14;;;;;;;;;;;16.80;99.90;;;;;;5068157;28;19979;-71
2022/11/09 10:35:45;;;;;;;;;;;16.40;99.90;;;;;;5064481;28;19952;-73
2022/11/09 10:38:13;;;;;;;;;;;16.30;99.90;;;;;;5074125;28;19916;-71
2022/11/09 10:40:44;;;;;;;;;;;16.20;99.90;;;;;;5097616;28;20333;-72
2022/11/09 10:43:11;;;;;;;;;;;16.30;99.90;;;;;;5066826;28;19913;-71
2022/11/09 10:45:38;;;;;;;;;;;16.30;99.90;;;;;;5067374;28;19913;-71
2022/11/09 10:48:04;;;;;;;;;;;16.50;99.90;;;;;;5109224;28;20004;-71
2022/11/09 10:50:38;;;;;;;;;;;16.40;99.90;;;;;;5089541;28;19917;-71
2022/11/09 10:53:08;;;;;;;;;;;16.30;99.90;;;;;;5089503;28;19958;-70
2022/11/09 10:55:35;;;;;;;;;;;16.30;99.90;;;;;;5075428;28;19917;-69
2022/11/09 10:58:21;;;;;;;;;;;16.10;99.90;;;;;;5091718;28;19912;-71
2022/11/09 11:01:06;;;;;;;;;;;16.00;99.90;;;;;;5084452;28;19959;-71
2022/11/09 11:03:34;;;;;;;;;;;16.00;99.90;;;;;;5075773;28;19962;-70
2022/11/09 11:06:01;;;;;;;;;;;15.90;99.90;;;;;;5078419;28;20377;-71
2022/11/09 11:08:28;;;;;;;;;;;15.80;99.90;;;;;;5074232;28;20038;-68
2022/11/09 11:11:05;;;;;;;;;;;15.70;99.90;;;;;;5081688;28;20011;-69
2022/11/09 11:13:30;;;;;;;;;;;15.50;99.90;;;;;;5073737;28;20278;-70
2022/11/09 11:15:57;;;;;;;;;;;15.50;99.90;;;;;;5066863;28;19942;-70
2022/11/09 11:18:24;;;;;;;;;;;15.50;99.90;;;;;;5078135;28;19908;-70
2022/11/09 11:21:04;;;;;;;;;;;15.50;99.90;;;;;;5074561;28;19980;-70
2022/11/09 11:23:30;;;;;;;;;;;15.40;99.90;;;;;;5090530;28;19912;-69
2022/11/09 11:26:00;;;;;;;;;;;15.50;99.90;;;;;;5081830;28;19913;-70
2022/11/09 11:28:45;;;;;;;;;;;15.60;99.90;;;;;;5074955;28;20023;-69
2022/11/09 11:31:12;;;;;;;;;;;15.70;99.90;;;;;;5074499;28;19943;-70
2022/11/09 11:33:38;;;;;;;;;;;16.00;99.90;;;;;;5073257;28;19920;-69
2022/11/09 11:36:09;;;;;;;;;;;16.30;99.90;;;;;;5078114;28;19935;-71
2022/11/09 11:38:37;;;;;;;;;;;16.40;99.90;;;;;;5066864;28;19912;-69
2022/11/09 11:41:11;;;;;;;;;;;16.60;99.90;;;;;;5078418;28;19921;-70
2022/11/09 11:43:56;;;;;;;;;;;16.50;99.90;;;;;;5059563;28;19954;-69
2022/11/09 11:46:27;;;;;;;;;;;16.30;99.90;;;;;;5074991;28;19916;-69
2022/11/09 11:49:00;;;;;;;;;;;16.40;99.90;;;;;;5072899;28;19935;-70
2022/11/09 11:51:29;;;;;;;;;;;16.50;99.90;;;;;;5083428;28;19912;-69
2022/11/09 11:54:14;;;;;;;;;;;16.30;99.90;;;;;;5076688;28;19934;-73
2022/11/09 11:56:45;;;;;;;;;;;16.30;99.90;;;;;;5072870;28;19955;-70
2022/11/09 11:59:26;;;;;;;;;;;16.20;99.90;;;;;;5072088;28;20011;-70
2022/11/09 12:02:12;;;;;;;;;;;16.00;99.90;;;;;;5072120;28;19916;-69
2022/11/09 12:04:59;;;;;;;;;;;16.10;99.90;;;;;;5075541;28;19916;-70
2022/11/09 12:07:30;;;;;;;;;;;16.40;99.90;;;;;;5066020;28;19920;-70
2022/11/09 12:10:15;;;;;;;;;;;16.60;99.90;;;;;;5078906;28;20298;-69
2022/11/09 12:15:30;;;;;;;;;;;16.50;99.90;;;;;;5091282;28;20309;-66
2022/11/09 12:18:01;;;;;;;;;;;16.30;99.90;;;;;;5073880;28;19916;-66
2022/11/09 12:20:30;;;;;;;;;;;16.20;99.90;;;;;;5074531;28;19920;-68
2022/11/09 12:23:01;;;;;;;;;;;16.20;99.90;;;;;;5084124;28;19916;-66
2022/11/09 12:25:45;;;;;;;;;;;16.30;99.90;;;;;;5079821;28;20257;-67
2022/11/09 12:31:10;;;;;;;;;;;16.20;99.90;;;;;;5112978;27;19919;-66
2022/11/09 12:33:48;;;;;;;;;;;16.40;99.90;;;;;;5102441;28;19926;-67
2022/11/09 12:36:17;;;;;;;;;;;16.50;99.90;;;;;;5103469;28;20292;-66
2022/11/09 12:38:56;;;;;;;;;;;16.20;99.90;;;;;;5100790;28;19960;-65
2022/11/09 12:41:26;;;;;;;;;;;16.00;99.90;;;;;;5105933;27;20422;-66
2022/11/09 12:43:56;;;;;;;;;;;15.90;99.90;;;;;;5126975;27;20368;-66
2022/11/09 12:46:26;;;;;;;;;;;16.00;99.90;;;;;;5124802;27;20413;-65
2022/11/09 12:48:53;;;;;;;;;;;15.90;99.90;;;;;;5107569;28;21169;-66
2022/11/09 12:51:19;;;;;;;;;;;16.00;99.90;;;;;;5109866;28;19912;-66
2022/11/09 12:53:44;;;;;;;;;;;16.20;99.90;;;;;;5110331;28;19915;-66
2022/11/09 12:56:28;;;;;;;;;;;16.10;99.90;;;;;;5109595;28;19965;-66
2022/11/09 12:59:13;;;;;;;;;;;16.10;99.90;;;;;;5100363;28;20404;-66
2022/11/09 13:04:18;;;;;;;;;;;16.10;99.90;;;;;;5090350;27;19923;-66
2022/11/09 13:07:03;;;;;;;;;;;16.00;99.90;;;;;;5076929;28;19961;-66
2022/11/09 13:09:29;;;;;;;;;;;15.90;99.90;;;;;;5065619;28;20020;-65
2022/11/09 13:11:55;;;;;;;;;;;16.00;99.90;;;;;;5069188;28;19978;-65
2022/11/09 13:16:59;;;;;;;;;;;16.00;99.90;;;;;;5088894;27;20399;-66
2022/11/09 13:22:22;;;;;;;;;;;16.10;99.90;;;;;;5092386;27;19916;-66
2022/11/09 13:24:49;;;;;;;;;;;16.20;99.90;;;;;;5069151;28;20397;-68
2022/11/09 13:27:35;;;;;;;;;;;16.00;99.90;;;;;;5066089;28;19913;-67
2022/11/09 13:30:00;;;;;;;;;;;15.90;99.90;;;;;;5068290;28;19961;-67
2022/11/09 13:32:27;;;;;;;;;;;15.70;99.90;;;;;;5064827;28;20360;-66
2022/11/09 13:34:54;;;;;;;;;;;15.70;99.90;;;;;;5071328;28;20316;-67
2022/11/09 13:37:39;;;;;;;;;;;15.60;99.90;;;;;;5065539;28;20398;-67
2022/11/09 13:40:24;;;;;;;;;;;15.60;99.90;;;;;;5065730;28;19967;-68
2022/11/09 13:42:55;;;;;;;;;;;15.60;99.90;;;;;;5063020;28;20007;-70
2022/11/09 13:45:25;;;;;;;;;;;15.50;99.90;;;;;;5069531;28;19954;-66
2022/11/09 13:47:51;;;;;;;;;;;15.50;99.90;;;;;;5071027;28;20357;-66
2022/11/09 13:50:17;;;;;;;;;;;15.50;99.90;;;;;;5070051;28;19995;-66
2022/11/09 13:52:51;;;;;;;;;;;15.50;99.90;;;;;;5068370;28;20367;-66
2022/11/09 13:55:22;;;;;;;;;;;15.50;99.90;;;;;;5059942;28;19967;-66
2022/11/09 13:57:47;;;;;;;;;;;15.50;99.90;;;;;;5058920;28;20020;-67
2022/11/09 14:00:22;;;;;;;;;;;15.40;99.90;;;;;;5070090;28;20426;-67
2022/11/09 14:02:56;;;;;;;;;;;15.40;99.90;;;;;;5060970;28;19912;-66
2022/11/09 14:05:26;;;;;;;;;;;15.40;99.90;;;;;;5061784;28;20061;-68
2022/11/09 14:07:52;;;;;;;;;;;15.40;99.90;;;;;;5071222;28;19920;-66
2022/11/09 14:10:24;;;;;;;;;;;15.40;99.90;;;;;;5068449;28;20413;-66
2022/11/09 14:13:09;;;;;;;;;;;15.40;99.90;;;;;;5065051;28;19927;-67
2022/11/09 14:15:43;;;;;;;;;;;15.40;99.90;;;;;;5067631;28;20325;-67
2022/11/09 14:18:22;;;;;;;;;;;15.40;99.90;;;;;;5069949;28;19913;-68
2022/11/09 14:20:52;;;;;;;;;;;15.40;99.90;;;;;;5074379;28;21271;-66
2022/11/09 14:23:19;;;;;;;;;;;15.40;99.90;;;;;;5089059;28;19920;-66
2022/11/09 14:25:45;;;;;;;;;;;15.40;99.90;;;;;;5085249;28;20003;-66
2022/11/09 14:28:18;;;;;;;;;;;15.40;99.90;;;;;;5084644;28;19912;-68
2022/11/09 14:30:44;;;;;;;;;;;15.40;99.90;;;;;;5087103;28;19920;-66
2022/11/09 14:33:29;;;;;;;;;;;15.30;99.90;;;;;;5057544;28;19920;-66
2022/11/09 14:35:56;;;;;;;;;;;15.20;99.90;;;;;;5078493;28;19912;-66
2022/11/09 14:38:25;;;;;;;;;;;15.10;99.90;;;;;;5073942;28;19913;-67